BAW173 EDDF-EGLL
Flight info
| Callsign | BAW173 |
|---|---|
| Flight time | 1h 8m |
| Altitude | 38000 |
| Route | OBOKA2E/07C OBOKA Z29 TORNU DCT ABNED L980 LOGAN |
| Aircraft | A320/M-SDE3FGHIRWY/LB1 |
Departure
| Time | 2026-04-14 10:38 |
|---|---|
| Airport | Frankfurt Main Airport (EDDF) |
Arrival
| Time | 2026-04-14 11:47 |
|---|---|
| Airport | London Heathrow Airport (EGLL) |
| Time | Latitude | Longitude | Altitude | Speed | Heading |
|---|---|---|---|---|---|
| 2026-04-14 10:06 | 50.03893 | 8.54880 | 354 ft | 0 kts | 159° |
| 2026-04-14 10:32 | 50.03889 | 8.54883 | 345 ft | 2 kts | 159° |
| 2026-04-14 10:32 | 50.03871 | 8.54893 | 357 ft | 4 kts | 159° |
| 2026-04-14 10:32 | 50.03839 | 8.54911 | 349 ft | 6 kts | 160° |
| 2026-04-14 10:33 | 50.03799 | 8.54892 | 353 ft | 7 kts | 232° |
| 2026-04-14 10:33 | 50.03777 | 8.54811 | 353 ft | 9 kts | 249° |
| 2026-04-14 10:33 | 50.03752 | 8.54709 | 348 ft | 11 kts | 249° |
| 2026-04-14 10:33 | 50.03723 | 8.54586 | 351 ft | 13 kts | 250° |
| 2026-04-14 10:34 | 50.03650 | 8.54279 | 353 ft | 17 kts | 250° |
| 2026-04-14 10:34 | 50.03605 | 8.54093 | 353 ft | 19 kts | 250° |
| 2026-04-14 10:34 | 50.03555 | 8.53884 | 348 ft | 22 kts | 249° |
| 2026-04-14 10:35 | 50.03501 | 8.53655 | 352 ft | 24 kts | 250° |
| 2026-04-14 10:35 | 50.03455 | 8.53481 | 347 ft | 11 kts | 238° |
| 2026-04-14 10:35 | 50.03383 | 8.53473 | 351 ft | 13 kts | 136° |
| 2026-04-14 10:35 | 50.03373 | 8.53491 | 345 ft | 1 kts | 129° |
| 2026-04-14 10:36 | 50.03366 | 8.53506 | 353 ft | 3 kts | 127° |
| 2026-04-14 10:36 | 50.03350 | 8.53540 | 348 ft | 5 kts | 126° |
| 2026-04-14 10:36 | 50.03325 | 8.53593 | 354 ft | 7 kts | 126° |
| 2026-04-14 10:36 | 50.03313 | 8.53676 | 347 ft | 9 kts | 80° |
| 2026-04-14 10:37 | 50.03323 | 8.53728 | 352 ft | 0 kts | 71° |
| 2026-04-14 10:37 | 50.03358 | 8.53876 | 347 ft | 36 kts | 69° |
| 2026-04-14 10:38 | 50.03528 | 8.54574 | 351 ft | 99 kts | 70° |
| 2026-04-14 10:38 | 50.03830 | 8.55822 | 350 ft | 146 kts | 69° |
| 2026-04-14 10:38 | 50.04200 | 8.57386 | 761 ft | 154 kts | 71° |
| 2026-04-14 10:38 | 50.04549 | 8.58962 | 1381 ft | 155 kts | 67° |
| 2026-04-14 10:39 | 50.04933 | 8.60570 | 1791 ft | 167 kts | 68° |
| 2026-04-14 10:39 | 50.05440 | 8.62328 | 2068 ft | 188 kts | 50° |
| 2026-04-14 10:39 | 50.06524 | 8.63502 | 2345 ft | 204 kts | 12° |
| 2026-04-14 10:39 | 50.07948 | 8.63442 | 3059 ft | 207 kts | 352° |
| 2026-04-14 10:40 | 50.09380 | 8.63224 | 3938 ft | 206 kts | 358° |
| 2026-04-14 10:40 | 50.10832 | 8.63148 | 4626 ft | 217 kts | 359° |
| 2026-04-14 10:40 | 50.12424 | 8.63099 | 5020 ft | 241 kts | 359° |
| 2026-04-14 10:40 | 50.14152 | 8.63043 | 5646 ft | 253 kts | 358° |
| 2026-04-14 10:41 | 50.15939 | 8.62966 | 6468 ft | 259 kts | 357° |
| 2026-04-14 10:41 | 50.17772 | 8.62866 | 7010 ft | 268 kts | 356° |
| 2026-04-14 10:41 | 50.19636 | 8.62752 | 7151 ft | 268 kts | 356° |
| 2026-04-14 10:41 | 50.21492 | 8.62631 | 7184 ft | 266 kts | 356° |
| 2026-04-14 10:42 | 50.23347 | 8.62508 | 7190 ft | 267 kts | 356° |
| 2026-04-14 10:42 | 50.25209 | 8.62384 | 7188 ft | 268 kts | 356° |
| 2026-04-14 10:42 | 50.27070 | 8.62259 | 7186 ft | 268 kts | 356° |
| 2026-04-14 10:42 | 50.28929 | 8.62133 | 7185 ft | 266 kts | 355° |
| 2026-04-14 10:43 | 50.30734 | 8.61567 | 7183 ft | 265 kts | 337° |
| 2026-04-14 10:43 | 50.32301 | 8.60088 | 7182 ft | 265 kts | 318° |
| 2026-04-14 10:43 | 50.33466 | 8.57853 | 7186 ft | 267 kts | 298° |
| 2026-04-14 10:43 | 50.34148 | 8.55133 | 7411 ft | 272 kts | 289° |
| 2026-04-14 10:44 | 50.34743 | 8.52358 | 8303 ft | 273 kts | 289° |
| 2026-04-14 10:44 | 50.35355 | 8.49530 | 9182 ft | 274 kts | 288° |
| 2026-04-14 10:44 | 50.35974 | 8.46682 | 9996 ft | 279 kts | 288° |
| 2026-04-14 10:44 | 50.36605 | 8.43768 | 10572 ft | 291 kts | 287° |
| 2026-04-14 10:45 | 50.37266 | 8.40649 | 10784 ft | 313 kts | 284° |
| 2026-04-14 10:45 | 50.37622 | 8.37225 | 11252 ft | 322 kts | 271° |
| 2026-04-14 10:45 | 50.37491 | 8.33711 | 11920 ft | 325 kts | 259° |
| 2026-04-14 10:45 | 50.36909 | 8.30286 | 12650 ft | 327 kts | 252° |
| 2026-04-14 10:46 | 50.36226 | 8.26869 | 13399 ft | 329 kts | 251° |
| 2026-04-14 10:46 | 50.35540 | 8.23438 | 14122 ft | 331 kts | 251° |
| 2026-04-14 10:46 | 50.34854 | 8.20018 | 14721 ft | 335 kts | 251° |
| 2026-04-14 10:46 | 50.34153 | 8.16522 | 15317 ft | 338 kts | 251° |
| 2026-04-14 10:47 | 50.33443 | 8.12985 | 15902 ft | 342 kts | 251° |
| 2026-04-14 10:47 | 50.32723 | 8.09410 | 16478 ft | 346 kts | 251° |
| 2026-04-14 10:47 | 50.31995 | 8.05801 | 17059 ft | 350 kts | 251° |
| 2026-04-14 10:47 | 50.31259 | 8.02152 | 17628 ft | 353 kts | 251° |
| 2026-04-14 10:48 | 50.30514 | 7.98453 | 18219 ft | 357 kts | 252° |
| 2026-04-14 10:48 | 50.29944 | 7.94653 | 18749 ft | 362 kts | 262° |
| 2026-04-14 10:48 | 50.29891 | 7.90699 | 19291 ft | 367 kts | 274° |
| 2026-04-14 10:48 | 50.30390 | 7.86758 | 19851 ft | 372 kts | 286° |
| 2026-04-14 10:49 | 50.31368 | 7.83053 | 20443 ft | 375 kts | 294° |
| 2026-04-14 10:49 | 50.32453 | 7.79332 | 21031 ft | 377 kts | 294° |
| 2026-04-14 10:49 | 50.33544 | 7.75575 | 21565 ft | 380 kts | 293° |
| 2026-04-14 10:49 | 50.34714 | 7.71852 | 22093 ft | 384 kts | 300° |
| 2026-04-14 10:50 | 50.36299 | 7.68470 | 22606 ft | 388 kts | 311° |
| 2026-04-14 10:50 | 50.38302 | 7.65603 | 23124 ft | 393 kts | 322° |
| 2026-04-14 10:50 | 50.40669 | 7.63388 | 23639 ft | 399 kts | 333° |
| 2026-04-14 10:50 | 50.43232 | 7.61635 | 24071 ft | 403 kts | 334° |
| 2026-04-14 10:51 | 50.45814 | 7.59873 | 24501 ft | 405 kts | 334° |
| 2026-04-14 10:51 | 50.48403 | 7.58095 | 24947 ft | 407 kts | 334° |
| 2026-04-14 10:51 | 50.50998 | 7.56302 | 25371 ft | 408 kts | 334° |
| 2026-04-14 10:51 | 50.53603 | 7.54497 | 25798 ft | 410 kts | 335° |
| 2026-04-14 10:52 | 50.56195 | 7.52598 | 26209 ft | 411 kts | 329° |
| 2026-04-14 10:52 | 50.58610 | 7.50186 | 26628 ft | 412 kts | 325° |
| 2026-04-14 10:52 | 50.61012 | 7.47693 | 27032 ft | 414 kts | 325° |
| 2026-04-14 10:52 | 50.63419 | 7.45198 | 27448 ft | 414 kts | 325° |
| 2026-04-14 10:53 | 50.65830 | 7.42708 | 27883 ft | 416 kts | 325° |
| 2026-04-14 10:53 | 50.68260 | 7.40202 | 28282 ft | 417 kts | 325° |
| 2026-04-14 10:53 | 50.70695 | 7.37692 | 28653 ft | 419 kts | 324° |
| 2026-04-14 10:53 | 50.72988 | 7.34845 | 29019 ft | 420 kts | 315° |
| 2026-04-14 10:54 | 50.74937 | 7.31480 | 29378 ft | 420 kts | 306° |
| 2026-04-14 10:54 | 50.76524 | 7.27619 | 29726 ft | 421 kts | 297° |
| 2026-04-14 10:54 | 50.77869 | 7.23486 | 30079 ft | 423 kts | 296° |
| 2026-04-14 10:54 | 50.79215 | 7.19330 | 30404 ft | 425 kts | 296° |
| 2026-04-14 10:55 | 50.80566 | 7.15165 | 30706 ft | 427 kts | 296° |
| 2026-04-14 10:55 | 50.81927 | 7.10976 | 31064 ft | 427 kts | 297° |
| 2026-04-14 10:55 | 50.83282 | 7.06802 | 31501 ft | 425 kts | 297° |
| 2026-04-14 10:55 | 50.84633 | 7.02633 | 31941 ft | 424 kts | 297° |
| 2026-04-14 10:56 | 50.85969 | 6.98495 | 32397 ft | 422 kts | 297° |
| 2026-04-14 10:56 | 50.87301 | 6.94359 | 32838 ft | 420 kts | 297° |
| 2026-04-14 10:56 | 50.88612 | 6.90286 | 33255 ft | 419 kts | 297° |
| 2026-04-14 10:56 | 50.89934 | 6.86172 | 33694 ft | 418 kts | 297° |
| 2026-04-14 10:57 | 50.91249 | 6.82073 | 34132 ft | 417 kts | 298° |
| 2026-04-14 10:57 | 50.92565 | 6.77965 | 34483 ft | 416 kts | 297° |
| 2026-04-14 10:57 | 50.93875 | 6.73865 | 34787 ft | 417 kts | 297° |
| 2026-04-14 10:57 | 50.95184 | 6.69768 | 35068 ft | 417 kts | 297° |
| 2026-04-14 10:58 | 50.96496 | 6.65659 | 35345 ft | 417 kts | 297° |
| 2026-04-14 10:58 | 50.97806 | 6.61550 | 35618 ft | 418 kts | 297° |
| 2026-04-14 10:58 | 50.99105 | 6.57468 | 35917 ft | 417 kts | 298° |
| 2026-04-14 10:58 | 51.00417 | 6.53337 | 36223 ft | 416 kts | 298° |
| 2026-04-14 10:59 | 51.01719 | 6.49229 | 36493 ft | 416 kts | 298° |
| 2026-04-14 10:59 | 51.03020 | 6.45116 | 36744 ft | 416 kts | 297° |
| 2026-04-14 10:59 | 51.04318 | 6.41001 | 36989 ft | 417 kts | 297° |
| 2026-04-14 10:59 | 51.05616 | 6.36873 | 37240 ft | 417 kts | 297° |
| 2026-04-14 11:00 | 51.06912 | 6.32742 | 37452 ft | 418 kts | 297° |
| 2026-04-14 11:00 | 51.08191 | 6.28655 | 37687 ft | 418 kts | 297° |
| 2026-04-14 11:00 | 51.09488 | 6.24510 | 37915 ft | 418 kts | 297° |
| 2026-04-14 11:00 | 51.10783 | 6.20370 | 38136 ft | 419 kts | 297° |
| 2026-04-14 11:01 | 51.12080 | 6.16224 | 38208 ft | 421 kts | 297° |
| 2026-04-14 11:01 | 51.14407 | 6.07656 | 38221 ft | 423 kts | 286° |
| 2026-04-14 11:02 | 51.15876 | 5.98522 | 38220 ft | 424 kts | 286° |
| 2026-04-14 11:02 | 51.17342 | 5.89418 | 38220 ft | 424 kts | 286° |
| 2026-04-14 11:03 | 51.19087 | 5.80465 | 38227 ft | 422 kts | 295° |
| 2026-04-14 11:03 | 51.21388 | 5.71856 | 38231 ft | 422 kts | 294° |
| 2026-04-14 11:04 | 51.23649 | 5.63277 | 38227 ft | 421 kts | 294° |
| 2026-04-14 11:04 | 51.25904 | 5.54658 | 38229 ft | 421 kts | 294° |
| 2026-04-14 11:05 | 51.28151 | 5.46036 | 38227 ft | 420 kts | 294° |
| 2026-04-14 11:05 | 51.30396 | 5.37411 | 38227 ft | 420 kts | 294° |
| 2026-04-14 11:06 | 51.32641 | 5.28776 | 38224 ft | 420 kts | 294° |
| 2026-04-14 11:06 | 51.34881 | 5.20129 | 38239 ft | 420 kts | 294° |
| 2026-04-14 11:07 | 51.37087 | 5.11560 | 38242 ft | 418 kts | 294° |
| 2026-04-14 11:07 | 51.39297 | 5.02944 | 38241 ft | 418 kts | 294° |
| 2026-04-14 11:08 | 51.41498 | 4.94338 | 38242 ft | 417 kts | 294° |
| 2026-04-14 11:08 | 51.43688 | 4.85727 | 38239 ft | 417 kts | 294° |
| 2026-04-14 11:09 | 51.45875 | 4.77112 | 38216 ft | 417 kts | 294° |
| 2026-04-14 11:09 | 51.48052 | 4.68504 | 38225 ft | 416 kts | 294° |
| 2026-04-14 11:10 | 51.51289 | 4.55609 | 38221 ft | 415 kts | 294° |
| 2026-04-14 11:10 | 51.53437 | 4.47026 | 38217 ft | 414 kts | 294° |
| 2026-04-14 11:11 | 51.55570 | 4.38488 | 38216 ft | 414 kts | 294° |
| 2026-04-14 11:11 | 51.57702 | 4.29887 | 38215 ft | 414 kts | 293° |
| 2026-04-14 11:12 | 51.59831 | 4.21285 | 38214 ft | 414 kts | 293° |
| 2026-04-14 11:12 | 51.61955 | 4.12682 | 38213 ft | 414 kts | 293° |
| 2026-04-14 11:13 | 51.64072 | 4.04071 | 38214 ft | 414 kts | 293° |
| 2026-04-14 11:13 | 51.66176 | 3.95442 | 38216 ft | 414 kts | 293° |
| 2026-04-14 11:14 | 51.68265 | 3.86803 | 38201 ft | 414 kts | 293° |
| 2026-04-14 11:14 | 51.70355 | 3.78167 | 38217 ft | 413 kts | 293° |
| 2026-04-14 11:15 | 51.72449 | 3.69543 | 38220 ft | 413 kts | 293° |
| 2026-04-14 11:15 | 51.74530 | 3.60921 | 38225 ft | 412 kts | 293° |
| 2026-04-14 11:16 | 51.76587 | 3.52339 | 38237 ft | 412 kts | 293° |
| 2026-04-14 11:16 | 51.78654 | 3.43689 | 38235 ft | 412 kts | 293° |
| 2026-04-14 11:17 | 51.80706 | 3.35040 | 38216 ft | 412 kts | 293° |
| 2026-04-14 11:17 | 51.82747 | 3.26380 | 38230 ft | 412 kts | 293° |
| 2026-04-14 11:18 | 51.84436 | 3.17533 | 38235 ft | 415 kts | 280° |
| 2026-04-14 11:18 | 51.84333 | 3.08160 | 38229 ft | 420 kts | 268° |
| 2026-04-14 11:19 | 51.83726 | 2.98756 | 38225 ft | 421 kts | 268° |
| 2026-04-14 11:19 | 51.83117 | 2.89401 | 38211 ft | 421 kts | 268° |
| 2026-04-14 11:20 | 51.82520 | 2.80503 | 38159 ft | 420 kts | 268° |
| 2026-04-14 11:20 | 51.82202 | 2.75772 | 37160 ft | 428 kts | 268° |
| 2026-04-14 11:20 | 51.81878 | 2.70956 | 36335 ft | 431 kts | 268° |
| 2026-04-14 11:21 | 51.81550 | 2.66151 | 35813 ft | 427 kts | 268° |
| 2026-04-14 11:21 | 51.81221 | 2.61403 | 35367 ft | 422 kts | 268° |
| 2026-04-14 11:21 | 51.80895 | 2.56713 | 34894 ft | 418 kts | 268° |
| 2026-04-14 11:21 | 51.80682 | 2.53624 | 34574 ft | 416 kts | 268° |
| 2026-04-14 11:22 | 51.80363 | 2.48995 | 34073 ft | 413 kts | 268° |
| 2026-04-14 11:22 | 51.79937 | 2.42922 | 33415 ft | 407 kts | 268° |
| 2026-04-14 11:22 | 51.79610 | 2.38400 | 32944 ft | 402 kts | 269° |
| 2026-04-14 11:22 | 51.79395 | 2.35434 | 32631 ft | 399 kts | 269° |
| 2026-04-14 11:23 | 51.79074 | 2.31003 | 32159 ft | 395 kts | 269° |
| 2026-04-14 11:23 | 51.78653 | 2.25149 | 31533 ft | 389 kts | 269° |
| 2026-04-14 11:23 | 51.78446 | 2.22281 | 31252 ft | 386 kts | 269° |
| 2026-04-14 11:23 | 51.78156 | 2.17995 | 30818 ft | 382 kts | 270° |
| 2026-04-14 11:24 | 51.77901 | 2.13752 | 30397 ft | 378 kts | 270° |
| 2026-04-14 11:24 | 51.77663 | 2.09532 | 29916 ft | 374 kts | 270° |
| 2026-04-14 11:24 | 51.77432 | 2.05381 | 29509 ft | 369 kts | 270° |
| 2026-04-14 11:24 | 51.77205 | 2.01279 | 29101 ft | 365 kts | 270° |
| 2026-04-14 11:25 | 51.76974 | 1.97205 | 28716 ft | 361 kts | 270° |
| 2026-04-14 11:25 | 51.76737 | 1.93189 | 28314 ft | 358 kts | 270° |
| 2026-04-14 11:25 | 51.76497 | 1.89213 | 27948 ft | 354 kts | 270° |
| 2026-04-14 11:25 | 51.76257 | 1.85281 | 27572 ft | 351 kts | 270° |
| 2026-04-14 11:26 | 51.76018 | 1.81367 | 27191 ft | 349 kts | 270° |
| 2026-04-14 11:26 | 51.75777 | 1.77490 | 26818 ft | 347 kts | 269° |
| 2026-04-14 11:26 | 51.75535 | 1.73620 | 26437 ft | 344 kts | 269° |
| 2026-04-14 11:26 | 51.75293 | 1.69792 | 26062 ft | 342 kts | 269° |
| 2026-04-14 11:27 | 51.75053 | 1.65989 | 25672 ft | 340 kts | 269° |
| 2026-04-14 11:27 | 51.74817 | 1.62205 | 25290 ft | 338 kts | 269° |
| 2026-04-14 11:27 | 51.74580 | 1.58433 | 24827 ft | 339 kts | 269° |
| 2026-04-14 11:27 | 51.74340 | 1.54638 | 24295 ft | 341 kts | 268° |
| 2026-04-14 11:28 | 51.74097 | 1.50820 | 23781 ft | 343 kts | 268° |
| 2026-04-14 11:28 | 51.73856 | 1.47027 | 23207 ft | 345 kts | 268° |
| 2026-04-14 11:28 | 51.73609 | 1.43184 | 22685 ft | 344 kts | 268° |
| 2026-04-14 11:28 | 51.73361 | 1.39345 | 22176 ft | 343 kts | 267° |
| 2026-04-14 11:29 | 51.73111 | 1.35517 | 21652 ft | 342 kts | 267° |
| 2026-04-14 11:29 | 51.72861 | 1.31701 | 21134 ft | 342 kts | 266° |
| 2026-04-14 11:29 | 51.72611 | 1.27888 | 20626 ft | 342 kts | 266° |
| 2026-04-14 11:29 | 51.72358 | 1.24078 | 20114 ft | 341 kts | 266° |
| 2026-04-14 11:30 | 51.72103 | 1.20271 | 19605 ft | 342 kts | 265° |
| 2026-04-14 11:30 | 51.71846 | 1.16454 | 19086 ft | 342 kts | 265° |
| 2026-04-14 11:30 | 51.71589 | 1.12643 | 18565 ft | 342 kts | 265° |
| 2026-04-14 11:30 | 51.71332 | 1.08836 | 18102 ft | 340 kts | 265° |
| 2026-04-14 11:31 | 51.71077 | 1.05062 | 17548 ft | 339 kts | 264° |
| 2026-04-14 11:31 | 51.70820 | 1.01315 | 17186 ft | 334 kts | 264° |
| 2026-04-14 11:31 | 51.70565 | 0.97610 | 16718 ft | 331 kts | 264° |
| 2026-04-14 11:31 | 51.70313 | 0.93935 | 16261 ft | 329 kts | 264° |
| 2026-04-14 11:32 | 51.70060 | 0.90281 | 15820 ft | 326 kts | 264° |
| 2026-04-14 11:32 | 51.69810 | 0.86709 | 15392 ft | 324 kts | 264° |
| 2026-04-14 11:32 | 51.69558 | 0.83121 | 14972 ft | 321 kts | 264° |
| 2026-04-14 11:32 | 51.69309 | 0.79554 | 14550 ft | 319 kts | 264° |
| 2026-04-14 11:33 | 51.69058 | 0.76019 | 14141 ft | 316 kts | 263° |
| 2026-04-14 11:33 | 51.68806 | 0.72505 | 13705 ft | 314 kts | 263° |
| 2026-04-14 11:33 | 51.68559 | 0.69018 | 13257 ft | 312 kts | 264° |
| 2026-04-14 11:34 | 51.68067 | 0.62093 | 12352 ft | 309 kts | 263° |
| 2026-04-14 11:34 | 51.67822 | 0.58666 | 11933 ft | 307 kts | 263° |
| 2026-04-14 11:34 | 51.67578 | 0.55316 | 11800 ft | 296 kts | 263° |
| 2026-04-14 11:34 | 51.67342 | 0.52075 | 11639 ft | 286 kts | 263° |
| 2026-04-14 11:35 | 51.67111 | 0.48899 | 11323 ft | 284 kts | 263° |
| 2026-04-14 11:35 | 51.66885 | 0.45749 | 10964 ft | 282 kts | 263° |
| 2026-04-14 11:35 | 51.66657 | 0.42614 | 10592 ft | 283 kts | 263° |
| 2026-04-14 11:35 | 51.66427 | 0.39473 | 10286 ft | 280 kts | 262° |
| 2026-04-14 11:36 | 51.66198 | 0.36368 | 9910 ft | 280 kts | 262° |
| 2026-04-14 11:36 | 51.65968 | 0.33265 | 9592 ft | 277 kts | 262° |
| 2026-04-14 11:36 | 51.65740 | 0.30216 | 9289 ft | 273 kts | 262° |
| 2026-04-14 11:36 | 51.65510 | 0.27174 | 8857 ft | 275 kts | 262° |
| 2026-04-14 11:37 | 51.65280 | 0.24133 | 8622 ft | 269 kts | 262° |
| 2026-04-14 11:37 | 51.65057 | 0.21190 | 8489 ft | 261 kts | 262° |
| 2026-04-14 11:37 | 51.64844 | 0.18366 | 8356 ft | 252 kts | 262° |
| 2026-04-14 11:37 | 51.64490 | 0.15666 | 8230 ft | 242 kts | 247° |
| 2026-04-14 11:38 | 51.63674 | 0.13352 | 7843 ft | 237 kts | 229° |
| 2026-04-14 11:38 | 51.62608 | 0.11359 | 7542 ft | 232 kts | 229° |
| 2026-04-14 11:38 | 51.61571 | 0.09395 | 7182 ft | 230 kts | 229° |
| 2026-04-14 11:38 | 51.60534 | 0.07422 | 6795 ft | 230 kts | 229° |
| 2026-04-14 11:39 | 51.59502 | 0.05459 | 6458 ft | 230 kts | 229° |
| 2026-04-14 11:39 | 51.58470 | 0.03492 | 6141 ft | 229 kts | 229° |
| 2026-04-14 11:39 | 51.57450 | 0.01545 | 5886 ft | 226 kts | 229° |
| 2026-04-14 11:39 | 51.56437 | -0.00384 | 5557 ft | 225 kts | 228° |
| 2026-04-14 11:40 | 51.55448 | -0.02263 | 5319 ft | 222 kts | 227° |
| 2026-04-14 11:40 | 51.54452 | -0.04148 | 5030 ft | 220 kts | 227° |
| 2026-04-14 11:40 | 51.53464 | -0.06016 | 4698 ft | 220 kts | 227° |
| 2026-04-14 11:40 | 51.52474 | -0.07880 | 4402 ft | 218 kts | 227° |
| 2026-04-14 11:41 | 51.51491 | -0.09732 | 3939 ft | 217 kts | 226° |
| 2026-04-14 11:41 | 51.50537 | -0.11538 | 3639 ft | 207 kts | 226° |
| 2026-04-14 11:41 | 51.49635 | -0.13252 | 3409 ft | 195 kts | 226° |
| 2026-04-14 11:41 | 51.48781 | -0.14871 | 3197 ft | 186 kts | 226° |
| 2026-04-14 11:42 | 51.48071 | -0.16585 | 2986 ft | 186 kts | 243° |
| 2026-04-14 11:42 | 51.47807 | -0.18611 | 2873 ft | 182 kts | 263° |
| 2026-04-14 11:42 | 51.47806 | -0.20581 | 2684 ft | 170 kts | 264° |
| 2026-04-14 11:42 | 51.47807 | -0.22353 | 2658 ft | 151 kts | 262° |
| 2026-04-14 11:43 | 51.47805 | -0.23996 | 2476 ft | 145 kts | 263° |
| 2026-04-14 11:43 | 51.47802 | -0.25599 | 2293 ft | 143 kts | 263° |
| 2026-04-14 11:43 | 51.47799 | -0.27182 | 2104 ft | 141 kts | 262° |
| 2026-04-14 11:43 | 51.47796 | -0.28757 | 1911 ft | 140 kts | 262° |
| 2026-04-14 11:44 | 51.47794 | -0.30285 | 1720 ft | 138 kts | 262° |
| 2026-04-14 11:44 | 51.47792 | -0.31827 | 1531 ft | 137 kts | 262° |
| 2026-04-14 11:44 | 51.47788 | -0.33357 | 1340 ft | 138 kts | 261° |
| 2026-04-14 11:44 | 51.47786 | -0.34908 | 1146 ft | 139 kts | 261° |
| 2026-04-14 11:45 | 51.47783 | -0.36455 | 959 ft | 139 kts | 261° |
| 2026-04-14 11:45 | 51.47779 | -0.38019 | 773 ft | 140 kts | 262° |
| 2026-04-14 11:45 | 51.47776 | -0.39561 | 596 ft | 136 kts | 261° |
| 2026-04-14 11:45 | 51.47756 | -0.41056 | 430 ft | 133 kts | 263° |
| 2026-04-14 11:46 | 51.47779 | -0.42549 | 242 ft | 134 kts | 261° |
| 2026-04-14 11:46 | 51.47764 | -0.44031 | 115 ft | 135 kts | 261° |
| 2026-04-14 11:46 | 51.47759 | -0.45396 | 87 ft | 106 kts | 268° |
| 2026-04-14 11:46 | 51.47757 | -0.46306 | 89 ft | 58 kts | 270° |
| 2026-04-14 11:47 | 51.47752 | -0.46885 | 91 ft | 50 kts | 268° |
| 2026-04-14 11:47 | 51.47744 | -0.47324 | 84 ft | 18 kts | 261° |
| 2026-04-14 11:47 | 51.47641 | -0.47392 | 85 ft | 17 kts | 181° |
| 2026-04-14 11:47 | 51.47594 | -0.47435 | 86 ft | 9 kts | 252° |
| 2026-04-14 11:48 | 51.47582 | -0.47552 | 89 ft | 12 kts | 268° |
| 2026-04-14 11:48 | 51.47583 | -0.47700 | 87 ft | 15 kts | 269° |
| 2026-04-14 11:48 | 51.47581 | -0.47875 | 89 ft | 17 kts | 269° |
| 2026-04-14 11:48 | 51.47581 | -0.48073 | 92 ft | 19 kts | 271° |
| 2026-04-14 11:49 | 51.47580 | -0.48292 | 92 ft | 21 kts | 269° |
| 2026-04-14 11:49 | 51.47509 | -0.48373 | 85 ft | 14 kts | 205° |
| 2026-04-14 11:49 | 51.47487 | -0.48533 | 87 ft | 17 kts | 266° |
| 2026-04-14 11:49 | 51.47487 | -0.48674 | 86 ft | 7 kts | 269° |
| 2026-04-14 11:50 | 51.47482 | -0.48748 | 88 ft | 5 kts | 239° |
| 2026-04-14 11:50 | 51.47438 | -0.48760 | 86 ft | 8 kts | 179° |
| 2026-04-14 11:50 | 51.47405 | -0.48759 | 85 ft | 3 kts | 180° |
| 2026-04-14 11:51 | 51.47404 | -0.48759 | 85 ft | 0 kts | 180° |